Kristin D — C6XA6 — position and weather

sailwx.info

Track history (hours):
 
Tides and Currents Weather Stations Pressure Air Temp Water Temp Dewpoint Dewpoint Depression Visibility Wind Speed Wind Dir Waves Ship Positions

Kristin D

Last reported at 2014-Oct-29 19:13 UTC. Time now 2014-Nov-01 09:48 UTC.
Position N 59°29' E 005°13'.

Length 90 m; draft 3.7 m.

Type: Cargo ship. MMSI: 311003700.

Date/timePositionNaut miles runAvg speedWind from/ knotsBaromVisibWave heightAir tempDewpointWater temp
2014-Oct-29 19:13N 59°29' E 005°13'811.5
2014-Oct-29 18:33N 59°22' E 005°18'1110.8
2014-Oct-29 17:33N 59°12' E 005°21'10 9.5
2014-Oct-29 16:33N 59°02' E 005°20'10 9.8
2014-Oct-29 15:33N 58°52' E 005°21'10 9.4
2014-Oct-29 14:31N 58°43' E 005°25'12 8.7
2014-Oct-29 13:09N 58°32' E 005°35'5 9.0
2014-Oct-29 12:33N 58°28' E 005°42'10 9.7
2014-Oct-29 11:33N 58°21' E 005°55'10 9.7
2014-Oct-29 10:33N 58°14' E 006°08'10 9.6
2014-Oct-29 09:32N 58°07' E 006°21'102 5.3
2014-Oct-28 14:11N 58°35' E 009°28'7 4.0
2014-Oct-28 12:33N 58°39' E 009°38'7 3.4
2014-Oct-28 10:27N 58°45' E 009°47'14 4.6
2014-Oct-28 07:30N 58°53' E 010°08'4 4.3
2014-Oct-28 06:33N 58°55' E 010°15'4 4.4
2014-Oct-28 05:33N 58°57' E 010°22'3 3.3
2014-Oct-28 04:33N 58°59' E 010°28'4 3.9
2014-Oct-28 03:33N 59°01' E 010°34'5 5.3
2014-Oct-28 02:33N 59°06' E 010°33'8 8.2
2014-Oct-28 01:33N 59°14' E 010°36'1010.3
2014-Oct-28 00:33N 59°24' E 010°33'29 9.8
2014-Oct-27 21:33N 59°53' E 010°43'1 0.8
2014-Oct-27 20:24N 59°53' E 010°45'0 0.0
2014-Oct-27 19:24N 59°53' E 010°45'0 0.0
2014-Oct-27 18:27N 59°53' E 010°45'0 0.0
2014-Oct-27 17:27N 59°53' E 010°45'0 0.0
2014-Oct-27 16:09N 59°53' E 010°45'0 0.0
2014-Oct-27 15:26N 59°53' E 010°45'0 0.0
2014-Oct-27 14:26N 59°53' E 010°45'0 0.0
2014-Oct-27 13:29N 59°53' E 010°45'0 0.0
2014-Oct-27 12:29N 59°53' E 010°45'0 0.0
2014-Oct-27 11:29N 59°53' E 010°45'0 0.0
2014-Oct-27 10:29N 59°53' E 010°45'0 0.0
2014-Oct-27 09:29N 59°53' E 010°45'0 0.0
2014-Oct-27 08:32N 59°53' E 010°45'0 0.0
2014-Oct-27 07:32N 59°53' E 010°45'0 0.0
2014-Oct-27 06:32N 59°53' E 010°45'0 0.0
2014-Oct-27 05:32N 59°53' E 010°45'0 0.0
2014-Oct-27 04:20N 59°53' E 010°45'0 0.0
2014-Oct-27 03:32N 59°53' E 010°45'0 0.0
2014-Oct-27 02:32N 59°53' E 010°45'0 0.0
2014-Oct-27 01:32N 59°53' E 010°45'0 0.0
2014-Oct-27 00:32N 59°53' E 010°45'0 0.0
2014-Oct-26 23:32N 59°53' E 010°45'0 0.0
2014-Oct-26 22:32N 59°53' E 010°45'0 0.0
2014-Oct-26 21:23N 59°53' E 010°45'0 0.0
2014-Oct-26 20:23N 59°53' E 010°45'0 0.0
2014-Oct-26 19:23N 59°53' E 010°45'0 0.0
2014-Oct-26 18:23N 59°53' E 010°45'0 0.0
2014-Oct-26 17:26N 59°53' E 010°45'0 0.0
2014-Oct-26 16:23N 59°53' E 010°45'0 0.0
2014-Oct-26 15:11N 59°53' E 010°45'0 0.0
2014-Oct-26 14:29N 59°53' E 010°45'0 0.0
2014-Oct-26 13:29N 59°53' E 010°45'0 0.0
2014-Oct-26 12:29N 59°53' E 010°45'0 0.0
2014-Oct-26 11:29N 59°53' E 010°45'0 0.0
2014-Oct-26 10:29N 59°53' E 010°45'0 0.0
2014-Oct-26 09:32N 59°53' E 010°45'0 0.0
2014-Oct-26 08:32N 59°53' E 010°45'0 0.0
2014-Oct-26 07:29N 59°53' E 010°45'0 0.0
2014-Oct-26 06:29N 59°53' E 010°45'0 0.0
2014-Oct-26 05:32N 59°53' E 010°45'0 0.0
2014-Oct-26 04:32N 59°53' E 010°45'0 0.0
2014-Oct-26 03:32N 59°53' E 010°45'0 0.0
2014-Oct-26 02:32N 59°53' E 010°45'0 0.0
2014-Oct-26 01:31N 59°53' E 010°45'0 0.0
2014-Oct-25 23:30N 59°53' E 010°45'0 0.0
2014-Oct-25 22:30N 59°53' E 010°45'0 0.0
2014-Oct-25 21:33N 59°53' E 010°45'0 0.0
2014-Oct-25 20:33N 59°53' E 010°45'0 0.0
2014-Oct-25 19:33N 59°53' E 010°45'0 0.0
2014-Oct-25 18:33N 59°53' E 010°45'0 0.0
2014-Oct-25 17:33N 59°53' E 010°45'0 0.0
2014-Oct-25 16:30N 59°53' E 010°45'0 0.0
2014-Oct-25 15:33N 59°53' E 010°45'0 0.0
2014-Oct-25 14:33N 59°53' E 010°45'0 0.0
2014-Oct-25 13:33N 59°53' E 010°45'0 0.0
2014-Oct-25 12:33N 59°53' E 010°45'0 0.0
2014-Oct-25 11:33N 59°53' E 010°45'0 0.0
2014-Oct-25 10:24N 59°53' E 010°45'0 0.0
2014-Oct-25 09:24N 59°53' E 010°45'0 0.0
2014-Oct-25 08:24N 59°53' E 010°45'0 0.0
2014-Oct-25 07:27N 59°53' E 010°45'0 0.0
2014-Oct-25 06:24N 59°53' E 010°45'0 0.0
2014-Oct-25 05:27N 59°53' E 010°45'0 0.0
2014-Oct-25 04:12N 59°53' E 010°45'0 0.0
2014-Oct-25 03:27N 59°53' E 010°45'0 0.0
2014-Oct-25 02:30N 59°53' E 010°45'0 0.0
2014-Oct-25 01:30N 59°53' E 010°45'0 0.0
2014-Oct-25 00:30N 59°53' E 010°45'0 0.0
2014-Oct-24 23:30N 59°53' E 010°45'0 0.0
2014-Oct-24 22:30N 59°53' E 010°45'0 0.0
2014-Oct-24 21:27N 59°53' E 010°45'0 0.0
2014-Oct-24 20:33N 59°53' E 010°45'0 0.0
2014-Oct-24 19:32N 59°53' E 010°45'0 0.0
2014-Oct-24 18:32N 59°53' E 010°45'0 0.0
2014-Oct-24 17:32N 59°53' E 010°45'0 0.0
2014-Oct-24 16:32N 59°53' E 010°45'0 0.0
2014-Oct-24 15:32N 59°53' E 010°45'0 0.0
2014-Oct-24 14:32N 59°53' E 010°45'0 0.0
2014-Oct-24 13:32N 59°53' E 010°45'0 0.0
2014-Oct-24 12:32N 59°53' E 010°45'0 0.0
2014-Oct-24 11:20N 59°53' E 010°45'0 0.0
2014-Oct-24 10:23N 59°53' E 010°45'0 0.0
2014-Oct-24 09:23N 59°53' E 010°45'0 0.0
2014-Oct-24 08:26N 59°53' E 010°45'0 0.0
2014-Oct-24 07:26N 59°53' E 010°45'0 0.0
2014-Oct-24 06:26N 59°53' E 010°45'0 0.0
2014-Oct-24 05:26N 59°53' E 010°45'0 0.0
2014-Oct-24 04:29N 59°53' E 010°45'0 0.0
2014-Oct-24 03:29N 59°53' E 010°45'0 0.0
2014-Oct-24 02:29N 59°53' E 010°45'0 0.0
2014-Oct-24 01:14N 59°53' E 010°45'0 0.0
2014-Oct-24 00:14N 59°53' E 010°45'0 0.0
2014-Oct-23 23:17N 59°53' E 010°45'0 0.0
2014-Oct-23 22:32N 59°53' E 010°45'0 0.0
2014-Oct-23 21:32N 59°53' E 010°45'0 0.0
2014-Oct-23 20:32N 59°53' E 010°45'0 0.0
2014-Oct-23 19:32N 59°53' E 010°45'0 0.0
2014-Oct-23 18:32N 59°53' E 010°45'0 0.0
2014-Oct-23 17:32N 59°53' E 010°45'0 0.0
2014-Oct-23 16:32N 59°53' E 010°45'0 0.0
2014-Oct-23 15:20N 59°53' E 010°45'0 0.0
2014-Oct-23 14:20N 59°53' E 010°45'0 0.0
2014-Oct-23 13:23N 59°53' E 010°45'0 0.0
2014-Oct-23 12:32N 59°53' E 010°45'0 0.0
2014-Oct-23 11:20N 59°53' E 010°45'0 0.0
2014-Oct-23 10:23N 59°53' E 010°45'0 0.0
2014-Oct-23 09:23N 59°53' E 010°45'0 0.0
2014-Oct-23 08:26N 59°53' E 010°45'0 0.0
2014-Oct-23 07:26N 59°53' E 010°45'0 0.0
2014-Oct-23 06:25N 59°53' E 010°45'0 0.0
2014-Oct-23 05:22N 59°53' E 010°45'0 0.0
2014-Oct-23 04:28N 59°53' E 010°45'0 0.0
2014-Oct-23 03:25N 59°53' E 010°45'0 0.0
2014-Oct-23 02:28N 59°53' E 010°45'0 0.0
2014-Oct-23 01:28N 59°53' E 010°45'0 0.0
2014-Oct-23 00:28N 59°53' E 010°45'0 0.0
2014-Oct-22 23:31N 59°53' E 010°45'0 0.0
2014-Oct-22 22:31N 59°53' E 010°45'0 0.0
2014-Oct-22 21:31N 59°53' E 010°45'0 0.0
2014-Oct-22 20:31N 59°53' E 010°45'0 0.0
2014-Oct-22 19:31N 59°53' E 010°45'0 0.0
2014-Oct-22 18:28N 59°53' E 010°45'0 0.0
2014-Oct-22 17:31N 59°53' E 010°45'0 0.0
2014-Oct-22 16:31N 59°53' E 010°45'0 0.0
2014-Oct-22 15:31N 59°53' E 010°45'0 0.0
2014-Oct-22 14:31N 59°53' E 010°45'0 0.0
2014-Oct-22 13:31N 59°53' E 010°45'0 0.0
2014-Oct-22 12:31N 59°53' E 010°45'0 0.0
2014-Oct-22 11:22N 59°53' E 010°45'0 0.0
2014-Oct-22 10:25N 59°53' E 010°45'0 0.0
2014-Oct-22 09:25N 59°53' E 010°45'0 0.0
2014-Oct-22 08:25N 59°53' E 010°45'0 0.0
2014-Oct-22 07:25N 59°53' E 010°45'0 0.0
2014-Oct-22 06:25N 59°53' E 010°45'0 0.0
2014-Oct-22 05:28N 59°53' E 010°45'0 0.0
2014-Oct-22 04:28N 59°53' E 010°45'0 0.0
2014-Oct-22 03:28N 59°53' E 010°45'0 0.0
2014-Oct-22 02:25N 59°53' E 010°45'0 0.4
2014-Oct-22 01:33N 59°53' E 010°44'11 9.5
2014-Oct-22 00:22N 59°43' E 010°35'1011.8
2014-Oct-21 23:33N 59°34' E 010°38'1110.9
2014-Oct-21 22:34N 59°23' E 010°37'1212.1
2014-Oct-21 21:33N 59°11' E 010°45'7 6.6
2014-Oct-21 20:33N 59°10' E 010°57'1 1.3
2014-Oct-21 19:33N 59°11' E 010°57'0 0.0
2014-Oct-21 18:33N 59°11' E 010°57'0 0.0
2014-Oct-21 17:33N 59°11' E 010°57'0 0.0
2014-Oct-21 16:33N 59°11' E 010°57'0 0.0
2014-Oct-21 15:33N 59°11' E 010°57'0 0.0
2014-Oct-21 14:33N 59°11' E 010°57'0 0.0
2014-Oct-21 13:33N 59°11' E 010°57'0 0.0
2014-Oct-21 12:33N 59°11' E 010°57'0 0.0
2014-Oct-21 11:33N 59°11' E 010°57'0 0.0
2014-Oct-21 10:33N 59°11' E 010°57'0 0.0
2014-Oct-21 09:33N 59°11' E 010°57'0 0.0
2014-Oct-21 08:33N 59°11' E 010°57'0 0.0
2014-Oct-21 07:33N 59°11' E 010°57'0 0.0
2014-Oct-21 06:33N 59°11' E 010°57'0 0.0
2014-Oct-21 05:33N 59°11' E 010°57'0 0.0
2014-Oct-21 04:33N 59°11' E 010°57'0 0.0
2014-Oct-21 03:33N 59°11' E 010°57'0 0.0
2014-Oct-21 02:33N 59°11' E 010°57'0 0.0
2014-Oct-21 01:33N 59°11' E 010°57'0 0.0
2014-Oct-21 00:33N 59°11' E 010°57'0 0.0
2014-Oct-20 23:33N 59°11' E 010°57'0 0.0
2014-Oct-20 22:33N 59°11' E 010°57'0 0.0
2014-Oct-20 21:33N 59°11' E 010°57'5 4.8
2014-Oct-20 20:33N 59°09' E 010°49'1110.8
2014-Oct-20 19:33N 59°18' E 010°41'1211.5
2014-Oct-20 18:33N 59°28' E 010°29'1010.2
2014-Oct-20 17:33N 59°38' E 010°25'2 0.2
2014-Oct-20 09:33N 59°40' E 010°24'10 9.5
2014-Oct-20 08:34N 59°31' E 010°26'1111.3
2014-Oct-20 07:33N 59°20' E 010°36'1211.5
2014-Oct-20 06:33N 59°09' E 010°38'8 7.5
2014-Oct-20 05:33N 59°02' E 010°35'7 7.1
2014-Oct-20 04:34N 58°56' E 010°26'8 7.6
2014-Oct-20 03:33N 58°51' E 010°14'  
Track history (hours):
 
Tides and Currents Weather Stations Pressure Air Temp Water Temp Dewpoint Dewpoint Depression Visibility Wind Speed Wind Dir Waves Ship Positions

Kristin D

Last reported at 2014-Oct-29 19:13 UTC. Time now 2014-Nov-01 09:48 UTC.
Position N 59°29' E 005°13'.

Length 90 m; draft 3.7 m.

Type: Cargo ship. MMSI: 311003700.

Date/timePositionNaut miles runAvg speedWind from/ knotsBaromVisibWave heightAir tempDewpointWater temp
2014-Oct-29 19:13N 59°29' E 005°13'811.5
2014-Oct-29 18:33N 59°22' E 005°18'1110.8
2014-Oct-29 17:33N 59°12' E 005°21'10 9.5
2014-Oct-29 16:33N 59°02' E 005°20'10 9.8
2014-Oct-29 15:33N 58°52' E 005°21'10 9.4
2014-Oct-29 14:31N 58°43' E 005°25'12 8.7
2014-Oct-29 13:09N 58°32' E 005°35'5 9.0
2014-Oct-29 12:33N 58°28' E 005°42'10 9.7
2014-Oct-29 11:33N 58°21' E 005°55'10 9.7
2014-Oct-29 10:33N 58°14' E 006°08'10 9.6
2014-Oct-29 09:32N 58°07' E 006°21'102 5.3
2014-Oct-28 14:11N 58°35' E 009°28'7 4.0
2014-Oct-28 12:33N 58°39' E 009°38'7 3.4
2014-Oct-28 10:27N 58°45' E 009°47'14 4.6
2014-Oct-28 07:30N 58°53' E 010°08'4 4.3
2014-Oct-28 06:33N 58°55' E 010°15'4 4.4
2014-Oct-28 05:33N 58°57' E 010°22'3 3.3
2014-Oct-28 04:33N 58°59' E 010°28'4 3.9
2014-Oct-28 03:33N 59°01' E 010°34'5 5.3
2014-Oct-28 02:33N 59°06' E 010°33'8 8.2
2014-Oct-28 01:33N 59°14' E 010°36'1010.3
2014-Oct-28 00:33N 59°24' E 010°33'29 9.8
2014-Oct-27 21:33N 59°53' E 010°43'1 0.8
2014-Oct-27 20:24N 59°53' E 010°45'0 0.0
2014-Oct-27 19:24N 59°53' E 010°45'0 0.0
2014-Oct-27 18:27N 59°53' E 010°45'0 0.0
2014-Oct-27 17:27N 59°53' E 010°45'0 0.0
2014-Oct-27 16:09N 59°53' E 010°45'0 0.0
2014-Oct-27 15:26N 59°53' E 010°45'0 0.0
2014-Oct-27 14:26N 59°53' E 010°45'0 0.0
2014-Oct-27 13:29N 59°53' E 010°45'0 0.0
2014-Oct-27 12:29N 59°53' E 010°45'0 0.0
2014-Oct-27 11:29N 59°53' E 010°45'0 0.0
2014-Oct-27 10:29N 59°53' E 010°45'0 0.0
2014-Oct-27 09:29N 59°53' E 010°45'0 0.0
2014-Oct-27 08:32N 59°53' E 010°45'0 0.0
2014-Oct-27 07:32N 59°53' E 010°45'0 0.0
2014-Oct-27 06:32N 59°53' E 010°45'0 0.0
2014-Oct-27 05:32N 59°53' E 010°45'0 0.0
2014-Oct-27 04:20N 59°53' E 010°45'0 0.0
2014-Oct-27 03:32N 59°53' E 010°45'0 0.0
2014-Oct-27 02:32N 59°53' E 010°45'0 0.0
2014-Oct-27 01:32N 59°53' E 010°45'0 0.0
2014-Oct-27 00:32N 59°53' E 010°45'0 0.0
2014-Oct-26 23:32N 59°53' E 010°45'0 0.0
2014-Oct-26 22:32N 59°53' E 010°45'0 0.0
2014-Oct-26 21:23N 59°53' E 010°45'0 0.0
2014-Oct-26 20:23N 59°53' E 010°45'0 0.0
2014-Oct-26 19:23N 59°53' E 010°45'0 0.0
2014-Oct-26 18:23N 59°53' E 010°45'0 0.0
2014-Oct-26 17:26N 59°53' E 010°45'0 0.0
2014-Oct-26 16:23N 59°53' E 010°45'0 0.0
2014-Oct-26 15:11N 59°53' E 010°45'0 0.0
2014-Oct-26 14:29N 59°53' E 010°45'0 0.0
2014-Oct-26 13:29N 59°53' E 010°45'0 0.0
2014-Oct-26 12:29N 59°53' E 010°45'0 0.0
2014-Oct-26 11:29N 59°53' E 010°45'0 0.0
2014-Oct-26 10:29N 59°53' E 010°45'0 0.0
2014-Oct-26 09:32N 59°53' E 010°45'0 0.0
2014-Oct-26 08:32N 59°53' E 010°45'0 0.0
2014-Oct-26 07:29N 59°53' E 010°45'0 0.0
2014-Oct-26 06:29N 59°53' E 010°45'0 0.0
2014-Oct-26 05:32N 59°53' E 010°45'0 0.0
2014-Oct-26 04:32N 59°53' E 010°45'0 0.0
2014-Oct-26 03:32N 59°53' E 010°45'0 0.0
2014-Oct-26 02:32N 59°53' E 010°45'0 0.0
2014-Oct-26 01:31N 59°53' E 010°45'0 0.0
2014-Oct-25 23:30N 59°53' E 010°45'0 0.0
2014-Oct-25 22:30N 59°53' E 010°45'0 0.0
2014-Oct-25 21:33N 59°53' E 010°45'0 0.0
2014-Oct-25 20:33N 59°53' E 010°45'0 0.0
2014-Oct-25 19:33N 59°53' E 010°45'0 0.0
2014-Oct-25 18:33N 59°53' E 010°45'0 0.0
2014-Oct-25 17:33N 59°53' E 010°45'0 0.0
2014-Oct-25 16:30N 59°53' E 010°45'0 0.0
2014-Oct-25 15:33N 59°53' E 010°45'0 0.0
2014-Oct-25 14:33N 59°53' E 010°45'0 0.0
2014-Oct-25 13:33N 59°53' E 010°45'0 0.0
2014-Oct-25 12:33N 59°53' E 010°45'0 0.0
2014-Oct-25 11:33N 59°53' E 010°45'0 0.0
2014-Oct-25 10:24N 59°53' E 010°45'0 0.0
2014-Oct-25 09:24N 59°53' E 010°45'0 0.0
2014-Oct-25 08:24N 59°53' E 010°45'0 0.0
2014-Oct-25 07:27N 59°53' E 010°45'0 0.0
2014-Oct-25 06:24N 59°53' E 010°45'0 0.0
2014-Oct-25 05:27N 59°53' E 010°45'0 0.0
2014-Oct-25 04:12N 59°53' E 010°45'0 0.0
2014-Oct-25 03:27N 59°53' E 010°45'0 0.0
2014-Oct-25 02:30N 59°53' E 010°45'0 0.0
2014-Oct-25 01:30N 59°53' E 010°45'0 0.0
2014-Oct-25 00:30N 59°53' E 010°45'0 0.0
2014-Oct-24 23:30N 59°53' E 010°45'0 0.0
2014-Oct-24 22:30N 59°53' E 010°45'0 0.0
2014-Oct-24 21:27N 59°53' E 010°45'0 0.0
2014-Oct-24 20:33N 59°53' E 010°45'0 0.0
2014-Oct-24 19:32N 59°53' E 010°45'0 0.0
2014-Oct-24 18:32N 59°53' E 010°45'0 0.0
2014-Oct-24 17:32N 59°53' E 010°45'0 0.0
2014-Oct-24 16:32N 59°53' E 010°45'0 0.0
2014-Oct-24 15:32N 59°53' E 010°45'0 0.0
2014-Oct-24 14:32N 59°53' E 010°45'0 0.0
2014-Oct-24 13:32N 59°53' E 010°45'0 0.0
2014-Oct-24 12:32N 59°53' E 010°45'0 0.0
2014-Oct-24 11:20N 59°53' E 010°45'0 0.0
2014-Oct-24 10:23N 59°53' E 010°45'0 0.0
2014-Oct-24 09:23N 59°53' E 010°45'0 0.0
2014-Oct-24 08:26N 59°53' E 010°45'0 0.0
2014-Oct-24 07:26N 59°53' E 010°45'0 0.0
2014-Oct-24 06:26N 59°53' E 010°45'0 0.0
2014-Oct-24 05:26N 59°53' E 010°45'0 0.0
2014-Oct-24 04:29N 59°53' E 010°45'0 0.0
2014-Oct-24 03:29N 59°53' E 010°45'0 0.0
2014-Oct-24 02:29N 59°53' E 010°45'0 0.0
2014-Oct-24 01:14N 59°53' E 010°45'0 0.0
2014-Oct-24 00:14N 59°53' E 010°45'0 0.0
2014-Oct-23 23:17N 59°53' E 010°45'0 0.0
2014-Oct-23 22:32N 59°53' E 010°45'0 0.0
2014-Oct-23 21:32N 59°53' E 010°45'0 0.0
2014-Oct-23 20:32N 59°53' E 010°45'0 0.0
2014-Oct-23 19:32N 59°53' E 010°45'0 0.0
2014-Oct-23 18:32N 59°53' E 010°45'0 0.0
2014-Oct-23 17:32N 59°53' E 010°45'0 0.0
2014-Oct-23 16:32N 59°53' E 010°45'0 0.0
2014-Oct-23 15:20N 59°53' E 010°45'0 0.0
2014-Oct-23 14:20N 59°53' E 010°45'0 0.0
2014-Oct-23 13:23N 59°53' E 010°45'0 0.0
2014-Oct-23 12:32N 59°53' E 010°45'0 0.0
2014-Oct-23 11:20N 59°53' E 010°45'0 0.0
2014-Oct-23 10:23N 59°53' E 010°45'0 0.0
2014-Oct-23 09:23N 59°53' E 010°45'0 0.0
2014-Oct-23 08:26N 59°53' E 010°45'0 0.0
2014-Oct-23 07:26N 59°53' E 010°45'0 0.0
2014-Oct-23 06:25N 59°53' E 010°45'0 0.0
2014-Oct-23 05:22N 59°53' E 010°45'0 0.0
2014-Oct-23 04:28N 59°53' E 010°45'0 0.0
2014-Oct-23 03:25N 59°53' E 010°45'0 0.0
2014-Oct-23 02:28N 59°53' E 010°45'0 0.0
2014-Oct-23 01:28N 59°53' E 010°45'0 0.0
2014-Oct-23 00:28N 59°53' E 010°45'0 0.0
2014-Oct-22 23:31N 59°53' E 010°45'0 0.0
2014-Oct-22 22:31N 59°53' E 010°45'0 0.0
2014-Oct-22 21:31N 59°53' E 010°45'0 0.0
2014-Oct-22 20:31N 59°53' E 010°45'0 0.0
2014-Oct-22 19:31N 59°53' E 010°45'0 0.0
2014-Oct-22 18:28N 59°53' E 010°45'0 0.0
2014-Oct-22 17:31N 59°53' E 010°45'0 0.0
2014-Oct-22 16:31N 59°53' E 010°45'0 0.0
2014-Oct-22 15:31N 59°53' E 010°45'0 0.0
2014-Oct-22 14:31N 59°53' E 010°45'0 0.0
2014-Oct-22 13:31N 59°53' E 010°45'0 0.0
2014-Oct-22 12:31N 59°53' E 010°45'0 0.0
2014-Oct-22 11:22N 59°53' E 010°45'0 0.0
2014-Oct-22 10:25N 59°53' E 010°45'0 0.0
2014-Oct-22 09:25N 59°53' E 010°45'0 0.0
2014-Oct-22 08:25N 59°53' E 010°45'0 0.0
2014-Oct-22 07:25N 59°53' E 010°45'0 0.0
2014-Oct-22 06:25N 59°53' E 010°45'0 0.0
2014-Oct-22 05:28N 59°53' E 010°45'0 0.0
2014-Oct-22 04:28N 59°53' E 010°45'0 0.0
2014-Oct-22 03:28N 59°53' E 010°45'0 0.0
2014-Oct-22 02:25N 59°53' E 010°45'0 0.4
2014-Oct-22 01:33N 59°53' E 010°44'11 9.5
2014-Oct-22 00:22N 59°43' E 010°35'1011.8
2014-Oct-21 23:33N 59°34' E 010°38'1110.9
2014-Oct-21 22:34N 59°23' E 010°37'1212.1
2014-Oct-21 21:33N 59°11' E 010°45'7 6.6
2014-Oct-21 20:33N 59°10' E 010°57'1 1.3
2014-Oct-21 19:33N 59°11' E 010°57'0 0.0
2014-Oct-21 18:33N 59°11' E 010°57'0 0.0
2014-Oct-21 17:33N 59°11' E 010°57'0 0.0
2014-Oct-21 16:33N 59°11' E 010°57'0 0.0
2014-Oct-21 15:33N 59°11' E 010°57'0 0.0
2014-Oct-21 14:33N 59°11' E 010°57'0 0.0
2014-Oct-21 13:33N 59°11' E 010°57'0 0.0
2014-Oct-21 12:33N 59°11' E 010°57'0 0.0
2014-Oct-21 11:33N 59°11' E 010°57'0 0.0
2014-Oct-21 10:33N 59°11' E 010°57'0 0.0
2014-Oct-21 09:33N 59°11' E 010°57'0 0.0
2014-Oct-21 08:33N 59°11' E 010°57'0 0.0
2014-Oct-21 07:33N 59°11' E 010°57'0 0.0
2014-Oct-21 06:33N 59°11' E 010°57'0 0.0
2014-Oct-21 05:33N 59°11' E 010°57'0 0.0
2014-Oct-21 04:33N 59°11' E 010°57'0 0.0
2014-Oct-21 03:33N 59°11' E 010°57'0 0.0
2014-Oct-21 02:33N 59°11' E 010°57'0 0.0
2014-Oct-21 01:33N 59°11' E 010°57'0 0.0
2014-Oct-21 00:33N 59°11' E 010°57'0 0.0
2014-Oct-20 23:33N 59°11' E 010°57'0 0.0
2014-Oct-20 22:33N 59°11' E 010°57'0 0.0
2014-Oct-20 21:33N 59°11' E 010°57'5 4.8
2014-Oct-20 20:33N 59°09' E 010°49'1110.8
2014-Oct-20 19:33N 59°18' E 010°41'1211.5
2014-Oct-20 18:33N 59°28' E 010°29'1010.2
2014-Oct-20 17:33N 59°38' E 010°25'2 0.2
2014-Oct-20 09:33N 59°40' E 010°24'10 9.5
2014-Oct-20 08:34N 59°31' E 010°26'1111.3
2014-Oct-20 07:33N 59°20' E 010°36'1211.5
2014-Oct-20 06:33N 59°09' E 010°38'8 7.5
2014-Oct-20 05:33N 59°02' E 010°35'7 7.1
2014-Oct-20 04:34N 58°56' E 010°26'8 7.6
2014-Oct-20 03:33N 58°51' E 010°14'  

Dump ship's entire track history